首页
METAR-TAF:

METAR-TAF

机场 :

聖地牙哥, 多米尼加共和国

纬度: 19-27N, 经度: 070-42W, 海拔: 183米

当前天气观测

该预报发布于20分钟前的08:00 UTC
静风
温度 24°C
湿度 94%
气压 1014 hPa
能见度10公里或以上
少量云层高于1600英尺
多云层高于30000英尺

METAR: MDST 160800Z 00000KT 9999 FEW016 BKN300 24/23 Q1014

时间: 04:20 (08:20 UTC)

预报

该预报发布于4小时和20分钟前的04:00 UTC
预报有效从16日的 06点(UTC)到 17日的 06点(UTC)
风速8节,风向东转东南
能见度10公里或以上
散云层高于1800英尺
多云层高于30000英尺
短暂存在
从 16日的 08点(UTC)到 16日的 12点(UTC)
能見度: 4000
多云层高于1200英尺
轻雾
成为
从 16日的 20点(UTC)到 16日的 22点(UTC)
风速5节,风向东转东北

TAF: MDST 160400Z 1606/1706 12008KT 9999 SCT018 BKN300 TEMPO 1608/1612 4000 BR BKN012 BECMG 1620/1622 06005KT

超过4000个机场的气象观测和天气预报(METAR&TAF报告)。

可查询的气象台以黄色和红色小点在地图上表示。

将鼠标移到小点上方,可查看气象台名称。

然后点击查看天气观测和预报。

如需切换地图:点击带黑十字的绿色按钮放大地图;点击带横线的绿色按钮缩小地图;或者点击绿色箭头查看邻近地区的地图。


METAR-TAF: